sensor_id;sensor_type;location;lat;lon;timestamp;temperature;humidity
8152;DHT22;4117;53.622;9.958;2023-07-28T00:02:02;15.90;99.90
8152;DHT22;4117;53.622;9.958;2023-07-28T00:04:28;15.90;99.90
8152;DHT22;4117;53.622;9.958;2023-07-28T00:06:55;15.90;99.90
8152;DHT22;4117;53.622;9.958;2023-07-28T00:09:22;15.90;99.90
8152;DHT22;4117;53.622;9.958;2023-07-28T00:11:49;15.90;99.90
8152;DHT22;4117;53.622;9.958;2023-07-28T00:14:16;15.90;99.90
8152;DHT22;4117;53.622;9.958;2023-07-28T00:16:44;15.90;99.90
8152;DHT22;4117;53.622;9.958;2023-07-28T00:19:11;15.90;99.90
8152;DHT22;4117;53.622;9.958;2023-07-28T00:21:38;15.90;99.90
8152;DHT22;4117;53.622;9.958;2023-07-28T00:24:05;15.90;99.90
8152;DHT22;4117;53.622;9.958;2023-07-28T00:26:32;15.90;99.90
8152;DHT22;4117;53.622;9.958;2023-07-28T00:28:59;15.90;99.90
8152;DHT22;4117;53.622;9.958;2023-07-28T00:31:26;15.90;99.90
8152;DHT22;4117;53.622;9.958;2023-07-28T00:33:54;15.90;99.90
8152;DHT22;4117;53.622;9.958;2023-07-28T00:36:21;15.90;99.90
8152;DHT22;4117;53.622;9.958;2023-07-28T00:38:48;15.90;99.90
8152;DHT22;4117;53.622;9.958;2023-07-28T00:41:15;15.90;99.90
8152;DHT22;4117;53.622;9.958;2023-07-28T00:43:42;15.90;99.90
8152;DHT22;4117;53.622;9.958;2023-07-28T00:46:10;15.90;99.90
8152;DHT22;4117;53.622;9.958;2023-07-28T00:48:37;15.90;99.90
8152;DHT22;4117;53.622;9.958;2023-07-28T00:51:06;15.80;99.90
8152;DHT22;4117;53.622;9.958;2023-07-28T00:53:33;15.80;99.90
8152;DHT22;4117;53.622;9.958;2023-07-28T00:56:01;15.80;99.90
8152;DHT22;4117;53.622;9.958;2023-07-28T00:58:29;15.80;99.90
8152;DHT22;4117;53.622;9.958;2023-07-28T01:00:56;15.80;99.90
8152;DHT22;4117;53.622;9.958;2023-07-28T01:03:23;15.80;99.90
8152;DHT22;4117;53.622;9.958;2023-07-28T01:05:57;15.80;99.90
8152;DHT22;4117;53.622;9.958;2023-07-28T01:08:31;15.80;99.90
8152;DHT22;4117;53.622;9.958;2023-07-28T01:10:59;15.80;99.90
8152;DHT22;4117;53.622;9.958;2023-07-28T01:13:26;15.80;99.90
8152;DHT22;4117;53.622;9.958;2023-07-28T01:15:53;15.80;99.90
8152;DHT22;4117;53.622;9.958;2023-07-28T01:18:20;15.80;99.90
8152;DHT22;4117;53.622;9.958;2023-07-28T01:20:47;15.80;99.90
8152;DHT22;4117;53.622;9.958;2023-07-28T01:23:27;15.80;99.90
8152;DHT22;4117;53.622;9.958;2023-07-28T01:26:05;15.80;99.90
8152;DHT22;4117;53.622;9.958;2023-07-28T01:28:35;15.80;99.90
8152;DHT22;4117;53.622;9.958;2023-07-28T01:31:02;15.80;99.90
8152;DHT22;4117;53.622;9.958;2023-07-28T01:33:29;15.80;99.90
8152;DHT22;4117;53.622;9.958;2023-07-28T01:35:56;15.80;99.90
8152;DHT22;4117;53.622;9.958;2023-07-28T01:38:24;15.80;99.90
8152;DHT22;4117;53.622;9.958;2023-07-28T01:40:51;15.80;99.90
8152;DHT22;4117;53.622;9.958;2023-07-28T01:43:18;15.80;99.90
8152;DHT22;4117;53.622;9.958;2023-07-28T01:45:46;15.80;99.90
8152;DHT22;4117;53.622;9.958;2023-07-28T01:48:13;15.80;99.90
8152;DHT22;4117;53.622;9.958;2023-07-28T01:50:40;15.80;99.90
8152;DHT22;4117;53.622;9.958;2023-07-28T01:53:07;15.80;99.90
8152;DHT22;4117;53.622;9.958;2023-07-28T01:55:34;15.80;99.90
8152;DHT22;4117;53.622;9.958;2023-07-28T01:58:01;15.80;99.90
8152;DHT22;4117;53.622;9.958;2023-07-28T02:03:03;15.80;99.90
8152;DHT22;4117;53.622;9.958;2023-07-28T02:05:30;15.80;99.90
8152;DHT22;4117;53.622;9.958;2023-07-28T02:07:58;15.80;99.90
8152;DHT22;4117;53.622;9.958;2023-07-28T02:10:26;15.80;99.90
8152;DHT22;4117;53.622;9.958;2023-07-28T02:12:53;15.80;99.90
8152;DHT22;4117;53.622;9.958;2023-07-28T02:15:20;15.80;99.90
8152;DHT22;4117;53.622;9.958;2023-07-28T02:17:47;15.80;99.90
8152;DHT22;4117;53.622;9.958;2023-07-28T02:20:16;15.80;99.90
8152;DHT22;4117;53.622;9.958;2023-07-28T02:22:43;15.80;99.90
8152;DHT22;4117;53.622;9.958;2023-07-28T02:25:10;15.80;99.90
8152;DHT22;4117;53.622;9.958;2023-07-28T02:27:37;15.80;99.90
8152;DHT22;4117;53.622;9.958;2023-07-28T02:30:05;15.70;99.90
8152;DHT22;4117;53.622;9.958;2023-07-28T02:32:32;15.70;99.90
8152;DHT22;4117;53.622;9.958;2023-07-28T02:34:59;15.70;99.90
8152;DHT22;4117;53.622;9.958;2023-07-28T02:37:28;15.70;99.90
8152;DHT22;4117;53.622;9.958;2023-07-28T02:39:55;15.70;99.90
8152;DHT22;4117;53.622;9.958;2023-07-28T02:42:21;15.70;99.90
8152;DHT22;4117;53.622;9.958;2023-07-28T02:44:49;15.70;99.90
8152;DHT22;4117;53.622;9.958;2023-07-28T02:47:16;15.70;99.90
8152;DHT22;4117;53.622;9.958;2023-07-28T02:49:43;15.70;99.90
8152;DHT22;4117;53.622;9.958;2023-07-28T02:52:11;15.70;99.90
8152;DHT22;4117;53.622;9.958;2023-07-28T02:54:39;15.70;99.90
8152;DHT22;4117;53.622;9.958;2023-07-28T02:57:06;15.70;99.90
8152;DHT22;4117;53.622;9.958;2023-07-28T02:59:33;15.70;99.90
8152;DHT22;4117;53.622;9.958;2023-07-28T03:02:00;15.70;99.90
8152;DHT22;4117;53.622;9.958;2023-07-28T03:04:27;15.70;99.90
8152;DHT22;4117;53.622;9.958;2023-07-28T03:06:54;15.70;99.90
8152;DHT22;4117;53.622;9.958;2023-07-28T03:09:21;15.70;99.90
8152;DHT22;4117;53.622;9.958;2023-07-28T03:11:50;15.70;99.90
8152;DHT22;4117;53.622;9.958;2023-07-28T03:14:17;15.70;99.90
8152;DHT22;4117;53.622;9.958;2023-07-28T03:16:43;15.70;99.90
8152;DHT22;4117;53.622;9.958;2023-07-28T03:19:10;15.70;99.90
8152;DHT22;4117;53.622;9.958;2023-07-28T03:21:37;15.70;99.90
8152;DHT22;4117;53.622;9.958;2023-07-28T03:24:05;15.70;99.90
8152;DHT22;4117;53.622;9.958;2023-07-28T03:26:31;15.70;99.90
8152;DHT22;4117;53.622;9.958;2023-07-28T03:29:00;15.70;99.90
8152;DHT22;4117;53.622;9.958;2023-07-28T03:31:27;15.70;99.90
8152;DHT22;4117;53.622;9.958;2023-07-28T03:33:53;15.70;99.90
8152;DHT22;4117;53.622;9.958;2023-07-28T03:36:20;15.70;99.90
8152;DHT22;4117;53.622;9.958;2023-07-28T03:38:47;15.70;99.90
8152;DHT22;4117;53.622;9.958;2023-07-28T03:41:14;15.70;99.90
8152;DHT22;4117;53.622;9.958;2023-07-28T03:43:41;15.70;99.90
8152;DHT22;4117;53.622;9.958;2023-07-28T03:46:09;15.70;99.90
8152;DHT22;4117;53.622;9.958;2023-07-28T03:48:36;15.70;99.90
8152;DHT22;4117;53.622;9.958;2023-07-28T03:51:03;15.70;99.90
8152;DHT22;4117;53.622;9.958;2023-07-28T03:53:30;15.70;99.90
8152;DHT22;4117;53.622;9.958;2023-07-28T03:56:00;15.70;99.90
8152;DHT22;4117;53.622;9.958;2023-07-28T03:58:27;15.70;99.90
8152;DHT22;4117;53.622;9.958;2023-07-28T04:00:54;15.70;99.90
8152;DHT22;4117;53.622;9.958;2023-07-28T04:03:22;15.60;99.90
8152;DHT22;4117;53.622;9.958;2023-07-28T04:05:49;15.70;99.90
8152;DHT22;4117;53.622;9.958;2023-07-28T04:08:16;15.60;99.90
8152;DHT22;4117;53.622;9.958;2023-07-28T04:10:43;15.60;99.90
8152;DHT22;4117;53.622;9.958;2023-07-28T04:13:10;15.70;99.90
8152;DHT22;4117;53.622;9.958;2023-07-28T04:15:37;15.60;99.90
8152;DHT22;4117;53.622;9.958;2023-07-28T04:18:04;15.60;99.90
8152;DHT22;4117;53.622;9.958;2023-07-28T04:20:32;15.60;99.90
8152;DHT22;4117;53.622;9.958;2023-07-28T04:23:00;15.60;99.90
8152;DHT22;4117;53.622;9.958;2023-07-28T04:25:26;15.60;99.90
8152;DHT22;4117;53.622;9.958;2023-07-28T04:27:53;15.60;99.90
8152;DHT22;4117;53.622;9.958;2023-07-28T04:30:21;15.70;99.90
8152;DHT22;4117;53.622;9.958;2023-07-28T04:32:48;15.70;99.90
8152;DHT22;4117;53.622;9.958;2023-07-28T04:35:15;15.70;99.90
8152;DHT22;4117;53.622;9.958;2023-07-28T04:37:44;15.70;99.90
8152;DHT22;4117;53.622;9.958;2023-07-28T04:40:11;15.60;99.90
8152;DHT22;4117;53.622;9.958;2023-07-28T04:42:38;15.70;99.90
8152;DHT22;4117;53.622;9.958;2023-07-28T04:45:06;15.60;99.90
8152;DHT22;4117;53.622;9.958;2023-07-28T04:47:33;15.70;99.90
8152;DHT22;4117;53.622;9.958;2023-07-28T04:50:00;15.60;99.90
8152;DHT22;4117;53.622;9.958;2023-07-28T04:52:27;15.70;99.90
8152;DHT22;4117;53.622;9.958;2023-07-28T04:54:55;15.70;99.90
8152;DHT22;4117;53.622;9.958;2023-07-28T04:57:22;15.70;99.90
8152;DHT22;4117;53.622;9.958;2023-07-28T04:59:49;15.70;99.90
8152;DHT22;4117;53.622;9.958;2023-07-28T05:02:17;15.70;99.90
8152;DHT22;4117;53.622;9.958;2023-07-28T05:04:43;15.70;99.90
8152;DHT22;4117;53.622;9.958;2023-07-28T05:07:10;15.70;99.90
8152;DHT22;4117;53.622;9.958;2023-07-28T05:09:37;15.70;99.90
8152;DHT22;4117;53.622;9.958;2023-07-28T05:12:06;15.70;99.90
8152;DHT22;4117;53.622;9.958;2023-07-28T05:14:34;15.70;99.90
8152;DHT22;4117;53.622;9.958;2023-07-28T05:17:01;15.70;99.90
8152;DHT22;4117;53.622;9.958;2023-07-28T05:19:28;15.70;99.90
8152;DHT22;4117;53.622;9.958;2023-07-28T05:21:55;15.70;99.90
8152;DHT22;4117;53.622;9.958;2023-07-28T05:24:22;15.70;99.90
8152;DHT22;4117;53.622;9.958;2023-07-28T05:26:49;15.80;99.90
8152;DHT22;4117;53.622;9.958;2023-07-28T05:29:17;15.80;99.90
8152;DHT22;4117;53.622;9.958;2023-07-28T05:31:44;15.80;99.90
8152;DHT22;4117;53.622;9.958;2023-07-28T05:34:11;15.80;99.90
8152;DHT22;4117;53.622;9.958;2023-07-28T05:36:39;15.80;99.90
8152;DHT22;4117;53.622;9.958;2023-07-28T05:39:06;15.80;99.90
8152;DHT22;4117;53.622;9.958;2023-07-28T05:41:33;15.80;99.90
8152;DHT22;4117;53.622;9.958;2023-07-28T05:44:00;15.80;99.90
8152;DHT22;4117;53.622;9.958;2023-07-28T05:46:28;15.80;99.90
8152;DHT22;4117;53.622;9.958;2023-07-28T05:48:55;15.80;99.90
8152;DHT22;4117;53.622;9.958;2023-07-28T05:51:23;15.90;99.90
8152;DHT22;4117;53.622;9.958;2023-07-28T05:53:50;15.90;99.90
8152;DHT22;4117;53.622;9.958;2023-07-28T05:56:16;15.90;99.90
8152;DHT22;4117;53.622;9.958;2023-07-28T05:58:44;15.90;99.90
8152;DHT22;4117;53.622;9.958;2023-07-28T06:01:11;15.90;99.90
8152;DHT22;4117;53.622;9.958;2023-07-28T06:03:39;15.90;99.90
8152;DHT22;4117;53.622;9.958;2023-07-28T06:06:06;15.90;99.90
8152;DHT22;4117;53.622;9.958;2023-07-28T06:08:34;15.90;99.90
8152;DHT22;4117;53.622;9.958;2023-07-28T06:11:03;15.90;99.90
8152;DHT22;4117;53.622;9.958;2023-07-28T06:13:31;15.90;99.90
8152;DHT22;4117;53.622;9.958;2023-07-28T06:15:58;15.90;99.90
8152;DHT22;4117;53.622;9.958;2023-07-28T06:18:25;16.00;99.90
8152;DHT22;4117;53.622;9.958;2023-07-28T06:20:54;16.00;99.90
8152;DHT22;4117;53.622;9.958;2023-07-28T06:23:21;16.00;99.90
8152;DHT22;4117;53.622;9.958;2023-07-28T06:25:48;16.00;99.90
8152;DHT22;4117;53.622;9.958;2023-07-28T06:28:15;16.00;99.90
8152;DHT22;4117;53.622;9.958;2023-07-28T06:30:42;16.00;99.90
8152;DHT22;4117;53.622;9.958;2023-07-28T06:33:09;16.00;99.90
8152;DHT22;4117;53.622;9.958;2023-07-28T06:35:36;16.00;99.90
8152;DHT22;4117;53.622;9.958;2023-07-28T06:38:05;16.00;99.90
8152;DHT22;4117;53.622;9.958;2023-07-28T06:40:32;16.00;99.90
8152;DHT22;4117;53.622;9.958;2023-07-28T06:43:00;16.00;99.90
8152;DHT22;4117;53.622;9.958;2023-07-28T06:45:27;16.00;99.90
8152;DHT22;4117;53.622;9.958;2023-07-28T06:47:54;16.10;99.90
8152;DHT22;4117;53.622;9.958;2023-07-28T06:50:21;16.10;99.90
8152;DHT22;4117;53.622;9.958;2023-07-28T06:52:49;16.10;99.90
8152;DHT22;4117;53.622;9.958;2023-07-28T06:55:18;16.10;99.90
8152;DHT22;4117;53.622;9.958;2023-07-28T06:57:47;16.10;99.90
8152;DHT22;4117;53.622;9.958;2023-07-28T07:00:16;16.20;99.90
8152;DHT22;4117;53.622;9.958;2023-07-28T07:02:43;16.20;99.90
8152;DHT22;4117;53.622;9.958;2023-07-28T07:05:11;16.20;99.90
8152;DHT22;4117;53.622;9.958;2023-07-28T07:07:38;16.20;99.90
8152;DHT22;4117;53.622;9.958;2023-07-28T07:10:06;16.30;99.90
8152;DHT22;4117;53.622;9.958;2023-07-28T07:12:35;16.30;99.90
8152;DHT22;4117;53.622;9.958;2023-07-28T07:15:02;16.30;99.90
8152;DHT22;4117;53.622;9.958;2023-07-28T07:17:29;16.40;99.90
8152;DHT22;4117;53.622;9.958;2023-07-28T07:19:56;16.40;99.90
8152;DHT22;4117;53.622;9.958;2023-07-28T07:22:23;16.40;99.90
8152;DHT22;4117;53.622;9.958;2023-07-28T07:24:51;16.40;99.90
8152;DHT22;4117;53.622;9.958;2023-07-28T07:27:18;16.40;99.90
8152;DHT22;4117;53.622;9.958;2023-07-28T07:29:47;16.40;99.90
8152;DHT22;4117;53.622;9.958;2023-07-28T07:32:14;16.40;99.90
8152;DHT22;4117;53.622;9.958;2023-07-28T07:34:42;16.50;99.90
8152;DHT22;4117;53.622;9.958;2023-07-28T07:37:09;16.50;99.90
8152;DHT22;4117;53.622;9.958;2023-07-28T07:39:37;16.40;99.90
8152;DHT22;4117;53.622;9.958;2023-07-28T07:42:09;16.40;99.90
8152;DHT22;4117;53.622;9.958;2023-07-28T07:44:36;16.40;99.90
8152;DHT22;4117;53.622;9.958;2023-07-28T07:47:12;16.40;99.90
8152;DHT22;4117;53.622;9.958;2023-07-28T07:49:39;16.40;99.90
8152;DHT22;4117;53.622;9.958;2023-07-28T07:52:07;16.50;99.90
8152;DHT22;4117;53.622;9.958;2023-07-28T07:54:34;16.50;99.90
8152;DHT22;4117;53.622;9.958;2023-07-28T07:57:01;16.50;99.90
8152;DHT22;4117;53.622;9.958;2023-07-28T07:59:28;16.50;99.90
8152;DHT22;4117;53.622;9.958;2023-07-28T08:01:57;16.50;99.90
8152;DHT22;4117;53.622;9.958;2023-07-28T08:04:27;16.50;99.90
8152;DHT22;4117;53.622;9.958;2023-07-28T08:06:54;16.60;99.90
8152;DHT22;4117;53.622;9.958;2023-07-28T08:09:21;16.60;99.90
8152;DHT22;4117;53.622;9.958;2023-07-28T08:11:48;16.60;99.90
8152;DHT22;4117;53.622;9.958;2023-07-28T08:14:16;16.50;99.90
8152;DHT22;4117;53.622;9.958;2023-07-28T08:16:43;16.60;99.90
8152;DHT22;4117;53.622;9.958;2023-07-28T08:19:10;16.60;99.90
8152;DHT22;4117;53.622;9.958;2023-07-28T08:21:38;16.60;99.90
8152;DHT22;4117;53.622;9.958;2023-07-28T08:24:05;16.70;99.90
8152;DHT22;4117;53.622;9.958;2023-07-28T08:26:32;16.70;99.90
8152;DHT22;4117;53.622;9.958;2023-07-28T08:28:59;16.70;99.90
8152;DHT22;4117;53.622;9.958;2023-07-28T08:31:26;16.70;99.90
8152;DHT22;4117;53.622;9.958;2023-07-28T08:33:53;16.70;99.90
8152;DHT22;4117;53.622;9.958;2023-07-28T08:36:20;16.70;99.90
8152;DHT22;4117;53.622;9.958;2023-07-28T08:38:48;16.70;99.90
8152;DHT22;4117;53.622;9.958;2023-07-28T08:41:15;16.70;99.90
8152;DHT22;4117;53.622;9.958;2023-07-28T08:43:42;16.70;99.90
8152;DHT22;4117;53.622;9.958;2023-07-28T08:46:09;16.70;99.90
8152;DHT22;4117;53.622;9.958;2023-07-28T08:48:36;16.70;99.90
8152;DHT22;4117;53.622;9.958;2023-07-28T08:51:03;16.80;99.90
8152;DHT22;4117;53.622;9.958;2023-07-28T08:53:31;16.70;99.90
8152;DHT22;4117;53.622;9.958;2023-07-28T08:55:59;16.70;99.90
8152;DHT22;4117;53.622;9.958;2023-07-28T08:58:26;16.70;99.90
8152;DHT22;4117;53.622;9.958;2023-07-28T09:00:53;16.80;99.90
8152;DHT22;4117;53.622;9.958;2023-07-28T09:03:27;16.80;99.90
8152;DHT22;4117;53.622;9.958;2023-07-28T09:05:59;16.80;99.90
8152;DHT22;4117;53.622;9.958;2023-07-28T09:08:26;16.80;99.90
8152;DHT22;4117;53.622;9.958;2023-07-28T09:10:53;16.90;99.90
8152;DHT22;4117;53.622;9.958;2023-07-28T09:13:22;17.00;99.90
8152;DHT22;4117;53.622;9.958;2023-07-28T09:15:49;17.00;99.90
8152;DHT22;4117;53.622;9.958;2023-07-28T09:18:17;17.00;99.90
8152;DHT22;4117;53.622;9.958;2023-07-28T09:20:44;17.00;99.90
8152;DHT22;4117;53.622;9.958;2023-07-28T09:23:14;17.10;99.90
8152;DHT22;4117;53.622;9.958;2023-07-28T09:25:41;17.10;99.90
8152;DHT22;4117;53.622;9.958;2023-07-28T09:28:09;17.10;99.90
8152;DHT22;4117;53.622;9.958;2023-07-28T09:30:49;17.10;99.90
8152;DHT22;4117;53.622;9.958;2023-07-28T09:33:29;17.10;99.90
8152;DHT22;4117;53.622;9.958;2023-07-28T09:35:57;17.10;99.90
8152;DHT22;4117;53.622;9.958;2023-07-28T09:38:27;17.10;99.90
8152;DHT22;4117;53.622;9.958;2023-07-28T09:40:57;17.10;99.90
8152;DHT22;4117;53.622;9.958;2023-07-28T09:43:25;17.10;99.90
8152;DHT22;4117;53.622;9.958;2023-07-28T09:45:55;17.10;99.90
8152;DHT22;4117;53.622;9.958;2023-07-28T09:48:25;17.20;99.90
8152;DHT22;4117;53.622;9.958;2023-07-28T09:50:59;17.20;99.90
8152;DHT22;4117;53.622;9.958;2023-07-28T09:53:28;17.20;99.90
8152;DHT22;4117;53.622;9.958;2023-07-28T09:55:55;17.20;99.90
8152;DHT22;4117;53.622;9.958;2023-07-28T09:58:25;17.30;99.90
8152;DHT22;4117;53.622;9.958;2023-07-28T10:00:55;17.30;99.90
8152;DHT22;4117;53.622;9.958;2023-07-28T10:03:23;17.30;99.90
8152;DHT22;4117;53.622;9.958;2023-07-28T10:05:50;17.30;99.90
8152;DHT22;4117;53.622;9.958;2023-07-28T10:08:17;17.30;99.90
8152;DHT22;4117;53.622;9.958;2023-07-28T10:10:45;17.30;99.90
8152;DHT22;4117;53.622;9.958;2023-07-28T10:13:19;17.40;99.90
8152;DHT22;4117;53.622;9.958;2023-07-28T10:15:47;17.40;99.90
8152;DHT22;4117;53.622;9.958;2023-07-28T10:18:15;17.50;99.90
8152;DHT22;4117;53.622;9.958;2023-07-28T10:20:46;17.50;99.90
8152;DHT22;4117;53.622;9.958;2023-07-28T10:23:16;17.60;99.90
8152;DHT22;4117;53.622;9.958;2023-07-28T10:25:45;17.60;99.90
8152;DHT22;4117;53.622;9.958;2023-07-28T10:28:27;17.70;99.90
8152;DHT22;4117;53.622;9.958;2023-07-28T10:30:58;17.70;99.90
8152;DHT22;4117;53.622;9.958;2023-07-28T10:33:32;17.60;99.90
8152;DHT22;4117;53.622;9.958;2023-07-28T10:36:08;17.60;99.90
8152;DHT22;4117;53.622;9.958;2023-07-28T10:38:36;17.60;99.90
8152;DHT22;4117;53.622;9.958;2023-07-28T10:41:12;17.70;99.90
8152;DHT22;4117;53.622;9.958;2023-07-28T10:43:41;17.70;99.90
8152;DHT22;4117;53.622;9.958;2023-07-28T10:46:09;17.70;99.90
8152;DHT22;4117;53.622;9.958;2023-07-28T10:48:41;17.70;99.90
8152;DHT22;4117;53.622;9.958;2023-07-28T10:51:09;17.70;99.90
8152;DHT22;4117;53.622;9.958;2023-07-28T10:53:38;17.70;98.30
8152;DHT22;4117;53.622;9.958;2023-07-28T10:56:05;17.80;99.90
8152;DHT22;4117;53.622;9.958;2023-07-28T10:58:34;17.80;99.90
8152;DHT22;4117;53.622;9.958;2023-07-28T11:01:02;17.90;99.90
8152;DHT22;4117;53.622;9.958;2023-07-28T11:03:29;17.90;99.90
8152;DHT22;4117;53.622;9.958;2023-07-28T11:05:58;17.90;99.90
8152;DHT22;4117;53.622;9.958;2023-07-28T11:08:25;17.90;98.40
8152;DHT22;4117;53.622;9.958;2023-07-28T11:10:52;18.00;98.40
8152;DHT22;4117;53.622;9.958;2023-07-28T11:13:19;18.00;98.40
8152;DHT22;4117;53.622;9.958;2023-07-28T11:15:46;18.00;99.10
8152;DHT22;4117;53.622;9.958;2023-07-28T11:18:15;18.00;98.40
8152;DHT22;4117;53.622;9.958;2023-07-28T11:20:42;18.00;98.40
8152;DHT22;4117;53.622;9.958;2023-07-28T11:23:14;18.10;98.60
8152;DHT22;4117;53.622;9.958;2023-07-28T11:25:44;18.00;94.40
8152;DHT22;4117;53.622;9.958;2023-07-28T11:28:13;18.00;93.20
8152;DHT22;4117;53.622;9.958;2023-07-28T11:30:40;18.00;93.10
8152;DHT22;4117;53.622;9.958;2023-07-28T11:33:09;18.00;92.50
8152;DHT22;4117;53.622;9.958;2023-07-28T11:35:38;18.00;93.00
8152;DHT22;4117;53.622;9.958;2023-07-28T11:38:05;18.00;92.90
8152;DHT22;4117;53.622;9.958;2023-07-28T11:40:33;18.10;93.70
8152;DHT22;4117;53.622;9.958;2023-07-28T11:43:01;18.10;93.00
8152;DHT22;4117;53.622;9.958;2023-07-28T11:45:29;18.20;96.90
8152;DHT22;4117;53.622;9.958;2023-07-28T11:47:58;18.20;93.70
8152;DHT22;4117;53.622;9.958;2023-07-28T11:50:26;18.20;94.80
8152;DHT22;4117;53.622;9.958;2023-07-28T11:52:54;18.30;93.00
8152;DHT22;4117;53.622;9.958;2023-07-28T11:55:22;18.30;91.20
8152;DHT22;4117;53.622;9.958;2023-07-28T11:57:51;18.30;93.00
8152;DHT22;4117;53.622;9.958;2023-07-28T12:00:19;18.30;90.40
8152;DHT22;4117;53.622;9.958;2023-07-28T12:03:01;18.30;82.40
8152;DHT22;4117;53.622;9.958;2023-07-28T12:05:30;18.30;76.70
8152;DHT22;4117;53.622;9.958;2023-07-28T12:07:57;18.40;81.50
8152;DHT22;4117;53.622;9.958;2023-07-28T12:10:24;18.40;81.00
8152;DHT22;4117;53.622;9.958;2023-07-28T12:12:52;18.50;68.70
8152;DHT22;4117;53.622;9.958;2023-07-28T12:15:21;18.60;70.80
8152;DHT22;4117;53.622;9.958;2023-07-28T12:18:08;18.60;70.90
8152;DHT22;4117;53.622;9.958;2023-07-28T12:20:37;18.60;60.40
8152;DHT22;4117;53.622;9.958;2023-07-28T12:23:05;18.60;63.50
8152;DHT22;4117;53.622;9.958;2023-07-28T12:25:34;18.60;67.30
8152;DHT22;4117;53.622;9.958;2023-07-28T12:28:03;18.70;62.90
8152;DHT22;4117;53.622;9.958;2023-07-28T12:30:30;18.70;61.80
8152;DHT22;4117;53.622;9.958;2023-07-28T12:32:57;18.70;54.80
8152;DHT22;4117;53.622;9.958;2023-07-28T12:35:24;18.80;57.70
8152;DHT22;4117;53.622;9.958;2023-07-28T12:37:54;18.80;45.00
8152;DHT22;4117;53.622;9.958;2023-07-28T12:40:22;18.80;45.40
8152;DHT22;4117;53.622;9.958;2023-07-28T12:42:49;18.90;43.90
8152;DHT22;4117;53.622;9.958;2023-07-28T12:45:17;18.90;45.40
8152;DHT22;4117;53.622;9.958;2023-07-28T12:47:44;18.90;45.40
8152;DHT22;4117;53.622;9.958;2023-07-28T12:50:11;18.90;45.40
8152;DHT22;4117;53.622;9.958;2023-07-28T12:52:38;18.90;36.50
8152;DHT22;4117;53.622;9.958;2023-07-28T12:55:05;18.90;38.90
8152;DHT22;4117;53.622;9.958;2023-07-28T12:57:32;18.90;32.60
8152;DHT22;4117;53.622;9.958;2023-07-28T12:59:59;19.00;32.70
8152;DHT22;4117;53.622;9.958;2023-07-28T13:02:27;19.00;32.70
8152;DHT22;4117;53.622;9.958;2023-07-28T13:04:54;19.00;31.80
8152;DHT22;4117;53.622;9.958;2023-07-28T13:07:21;19.00;23.40
8152;DHT22;4117;53.622;9.958;2023-07-28T13:09:49;19.00;32.70
8152;DHT22;4117;53.622;9.958;2023-07-28T13:12:16;18.90;32.60
8152;DHT22;4117;53.622;9.958;2023-07-28T13:14:42;19.00;32.70
8152;DHT22;4117;53.622;9.958;2023-07-28T13:17:09;19.00;32.70
8152;DHT22;4117;53.622;9.958;2023-07-28T13:19:38;19.00;31.30
8152;DHT22;4117;53.622;9.958;2023-07-28T13:22:06;19.10;32.80
8152;DHT22;4117;53.622;9.958;2023-07-28T13:24:33;19.10;29.20
8152;DHT22;4117;53.622;9.958;2023-07-28T13:27:00;19.10;24.90
8152;DHT22;4117;53.622;9.958;2023-07-28T13:29:27;19.10;24.70
8152;DHT22;4117;53.622;9.958;2023-07-28T13:31:58;19.10;25.00
8152;DHT22;4117;53.622;9.958;2023-07-28T13:34:25;19.20;30.20
8152;DHT22;4117;53.622;9.958;2023-07-28T13:36:54;19.30;33.00
8152;DHT22;4117;53.622;9.958;2023-07-28T13:39:21;19.30;33.00
8152;DHT22;4117;53.622;9.958;2023-07-28T13:41:48;19.30;22.30
8152;DHT22;4117;53.622;9.958;2023-07-28T13:44:15;19.40;26.10
8152;DHT22;4117;53.622;9.958;2023-07-28T13:46:42;19.50;30.00
8152;DHT22;4117;53.622;9.958;2023-07-28T13:49:09;19.50;26.00
8152;DHT22;4117;53.622;9.958;2023-07-28T13:51:36;19.50;15.20
8152;DHT22;4117;53.622;9.958;2023-07-28T13:54:04;19.50;12.60
8152;DHT22;4117;53.622;9.958;2023-07-28T13:56:31;19.50;10.90
8152;DHT22;4117;53.622;9.958;2023-07-28T13:58:59;19.50;11.60
8152;DHT22;4117;53.622;9.958;2023-07-28T14:01:26;19.50;12.00
8152;DHT22;4117;53.622;9.958;2023-07-28T14:03:53;19.50;14.90
8152;DHT22;4117;53.622;9.958;2023-07-28T14:06:20;19.60;8.30
8152;DHT22;4117;53.622;9.958;2023-07-28T14:08:46;19.60;8.20
8152;DHT22;4117;53.622;9.958;2023-07-28T14:11:15;19.60;2.10
8152;DHT22;4117;53.622;9.958;2023-07-28T14:13:42;19.60;7.40
8152;DHT22;4117;53.622;9.958;2023-07-28T14:16:09;19.70;5.80
8152;DHT22;4117;53.622;9.958;2023-07-28T14:18:36;19.70;11.60
8152;DHT22;4117;53.622;9.958;2023-07-28T14:21:03;19.70;6.80
8152;DHT22;4117;53.622;9.958;2023-07-28T14:23:30;19.70;1.00
8152;DHT22;4117;53.622;9.958;2023-07-28T14:25:57;19.70;3.90
8152;DHT22;4117;53.622;9.958;2023-07-28T14:28:25;19.70;4.00
8152;DHT22;4117;53.622;9.958;2023-07-28T14:30:52;19.70;1.00
8152;DHT22;4117;53.622;9.958;2023-07-28T14:33:19;19.70;2.10
8152;DHT22;4117;53.622;9.958;2023-07-28T14:35:48;19.70;3.30
8152;DHT22;4117;53.622;9.958;2023-07-28T14:38:16;19.70;6.80
8152;DHT22;4117;53.622;9.958;2023-07-28T14:40:43;19.70;6.00
8152;DHT22;4117;53.622;9.958;2023-07-28T14:43:14;19.80;1.20
8152;DHT22;4117;53.622;9.958;2023-07-28T14:45:42;19.80;1.90
8152;DHT22;4117;53.622;9.958;2023-07-28T14:48:09;19.90;3.30
8152;DHT22;4117;53.622;9.958;2023-07-28T14:50:36;19.90;3.90
8152;DHT22;4117;53.622;9.958;2023-07-28T14:53:03;19.90;1.00
8152;DHT22;4117;53.622;9.958;2023-07-28T14:55:50;19.90;1.00
8152;DHT22;4117;53.622;9.958;2023-07-28T14:58:17;20.10;1.00
8152;DHT22;4117;53.622;9.958;2023-07-28T15:00:45;20.10;1.00
8152;DHT22;4117;53.622;9.958;2023-07-28T15:03:12;20.00;1.00
8152;DHT22;4117;53.622;9.958;2023-07-28T15:05:39;19.90;1.00
8152;DHT22;4117;53.622;9.958;2023-07-28T15:08:06;19.90;1.00
8152;DHT22;4117;53.622;9.958;2023-07-28T15:10:33;19.80;1.00
8152;DHT22;4117;53.622;9.958;2023-07-28T15:13:00;19.90;1.00
8152;DHT22;4117;53.622;9.958;2023-07-28T15:15:26;20.10;1.00
8152;DHT22;4117;53.622;9.958;2023-07-28T15:17:55;20.20;1.00
8152;DHT22;4117;53.622;9.958;2023-07-28T15:20:21;20.30;1.00
8152;DHT22;4117;53.622;9.958;2023-07-28T15:22:49;20.30;1.00
8152;DHT22;4117;53.622;9.958;2023-07-28T15:25:16;20.50;1.00
8152;DHT22;4117;53.622;9.958;2023-07-28T15:27:43;20.40;1.00
8152;DHT22;4117;53.622;9.958;2023-07-28T15:30:11;20.40;1.00
8152;DHT22;4117;53.622;9.958;2023-07-28T15:32:38;20.30;1.00
8152;DHT22;4117;53.622;9.958;2023-07-28T15:35:08;20.30;1.00
8152;DHT22;4117;53.622;9.958;2023-07-28T15:37:35;20.30;1.00
8152;DHT22;4117;53.622;9.958;2023-07-28T15:40:02;20.50;1.00
8152;DHT22;4117;53.622;9.958;2023-07-28T15:42:29;20.60;1.00
8152;DHT22;4117;53.622;9.958;2023-07-28T15:44:56;20.60;1.00
8152;DHT22;4117;53.622;9.958;2023-07-28T15:47:23;20.60;1.00
8152;DHT22;4117;53.622;9.958;2023-07-28T15:49:50;20.50;1.00
8152;DHT22;4117;53.622;9.958;2023-07-28T15:52:20;20.60;1.00
8152;DHT22;4117;53.622;9.958;2023-07-28T15:54:47;20.70;1.00
8152;DHT22;4117;53.622;9.958;2023-07-28T15:57:14;20.80;1.00
8152;DHT22;4117;53.622;9.958;2023-07-28T15:59:41;20.70;1.00
8152;DHT22;4117;53.622;9.958;2023-07-28T16:02:08;20.70;1.00
8152;DHT22;4117;53.622;9.958;2023-07-28T16:04:35;20.60;1.00
8152;DHT22;4117;53.622;9.958;2023-07-28T16:07:03;20.80;1.00
8152;DHT22;4117;53.622;9.958;2023-07-28T16:09:32;20.80;1.00
8152;DHT22;4117;53.622;9.958;2023-07-28T16:11:58;20.80;1.00